createdAt,value
2018-02-06T12:51:13.975Z,9.37
2018-02-06T12:54:17.278Z,8.90
2018-02-06T12:57:20.580Z,9.37
2018-02-06T13:00:23.904Z,9.83
2018-02-06T13:03:27.213Z,9.27
2018-02-06T13:06:31.296Z,8.30
2018-02-06T13:09:34.587Z,7.77
2018-02-06T13:12:37.872Z,6.93
2018-02-06T13:15:41.136Z,6.93
2018-02-06T13:18:44.408Z,7.87
2018-02-06T13:21:47.848Z,7.63
2018-02-06T13:24:51.892Z,7.07
2018-02-06T13:27:55.166Z,8.50
2018-02-06T13:30:59.199Z,7.97
2018-02-06T13:34:02.482Z,8.67
2018-02-06T13:37:06.530Z,8.17
2018-02-06T13:40:09.824Z,8.53
2018-02-06T13:43:13.137Z,8.57
2018-02-06T13:46:16.394Z,8.17
2018-02-06T13:49:19.681Z,9.17
2018-02-06T13:52:23.757Z,8.10
2018-02-06T13:55:27.060Z,9.73
2018-02-06T13:58:30.338Z,9.53
2018-02-06T14:01:33.604Z,9.00
2018-02-06T14:04:36.876Z,8.37
2018-02-06T14:07:40.156Z,8.30
2018-02-06T14:10:43.457Z,8.80
2018-02-06T14:13:46.815Z,9.60
2018-02-06T14:16:50.086Z,9.53
2018-02-06T14:19:54.147Z,8.23
2018-02-06T14:22:57.604Z,9.00
2018-02-06T14:26:01.030Z,8.47
2018-02-06T14:29:04.395Z,9.10
2018-02-06T14:32:08.452Z,8.40
2018-02-06T14:35:11.724Z,8.23
2018-02-06T14:38:18.409Z,7.77
2018-02-06T14:41:21.718Z,8.10
2018-02-06T14:44:25.022Z,8.63
2018-02-06T14:47:28.319Z,8.77
2018-02-06T14:50:31.605Z,8.03
2018-02-06T14:53:34.898Z,8.47
2018-02-06T14:56:38.176Z,7.80
2018-02-06T14:59:42.257Z,7.30
2018-02-06T15:02:45.520Z,7.37
2018-02-06T15:05:48.924Z,7.63
2018-02-06T15:08:52.233Z,9.33
2018-02-06T15:11:55.550Z,8.20
2018-02-06T15:14:58.846Z,7.63
2018-02-06T15:18:02.155Z,9.37
2018-02-06T15:21:05.453Z,9.83
2018-02-06T15:24:08.745Z,8.03
2018-02-06T15:27:12.021Z,8.90
2018-02-06T15:30:15.281Z,7.93
2018-02-06T15:33:18.571Z,8.07
2018-02-06T15:36:23.508Z,8.67
2018-02-06T15:39:27.122Z,8.17
2018-02-06T15:42:30.483Z,8.67
2018-02-06T15:45:33.813Z,8.57
2018-02-06T15:48:38.040Z,7.93
2018-02-06T15:51:41.440Z,8.30
2018-02-06T15:54:45.478Z,8.83
2018-02-06T15:57:48.825Z,8.50
2018-02-06T16:00:52.871Z,9.10
2018-02-06T16:03:56.216Z,9.93
2018-02-06T16:06:59.541Z,10.63
2018-02-06T16:10:31.760Z,10.43
2018-02-06T16:13:35.989Z,10.10
2018-02-06T16:16:39.719Z,11.03
2018-02-06T16:19:43.199Z,9.53
2018-02-06T16:22:46.524Z,9.17
2018-02-06T16:25:49.802Z,9.83
2018-02-06T16:28:53.116Z,10.07
2018-02-06T16:32:09.203Z,11.10
2018-02-06T16:35:14.209Z,10.10
2018-02-06T16:38:17.517Z,10.50
2018-02-06T16:41:20.805Z,10.23
2018-02-06T16:44:24.124Z,10.77
2018-02-06T16:47:27.414Z,11.53
2018-02-06T16:50:32.980Z,11.60
2018-02-06T16:53:36.289Z,9.87
2018-02-06T16:56:39.612Z,10.53
2018-02-06T16:59:42.935Z,11.00
2018-02-06T17:02:46.337Z,10.33
2018-02-06T17:05:50.428Z,12.67
2018-02-06T17:08:53.767Z,11.37
2018-02-06T17:11:57.836Z,10.60
2018-02-06T17:15:01.128Z,10.97
2018-02-06T17:18:04.458Z,12.50
2018-02-06T17:21:07.752Z,10.83
2018-02-06T17:24:11.057Z,10.83
2018-02-06T17:27:15.131Z,11.37
2018-02-06T17:30:19.415Z,10.88
2018-02-06T17:33:23.540Z,12.10
2018-02-06T17:36:27.626Z,12.27
2018-02-06T17:39:30.921Z,10.63
2018-02-06T17:42:34.217Z,11.40
2018-02-06T17:45:38.301Z,10.77
2018-02-06T17:48:41.656Z,11.90
2018-02-06T17:51:45.761Z,13.07
2018-02-06T17:54:49.172Z,12.23
2018-02-06T17:57:53.872Z,11.97
2018-02-06T18:00:57.155Z,11.73
2018-02-06T18:04:00.534Z,12.57
2018-02-06T18:07:03.881Z,12.37
2018-02-06T18:10:07.200Z,11.70
2018-02-06T18:13:11.705Z,11.20
2018-02-06T18:16:15.927Z,12.45
2018-02-06T18:19:19.255Z,12.43
2018-02-06T18:22:22.550Z,12.57
2018-02-06T18:25:25.854Z,12.40
2018-02-06T18:28:29.181Z,12.53
2018-02-06T18:31:32.481Z,12.57
2018-02-06T18:34:36.573Z,10.63
2018-02-06T18:37:39.890Z,11.87
2018-02-06T18:40:43.300Z,11.80
2018-02-06T18:43:46.625Z,12.35
2018-02-06T18:46:50.701Z,12.00
2018-02-06T18:50:10.174Z,12.97
2018-02-06T18:53:14.471Z,11.97
2018-02-06T18:56:18.199Z,10.27
2018-02-06T18:59:21.532Z,10.70
2018-02-06T19:02:25.755Z,11.33
2018-02-06T19:05:29.080Z,11.43
2018-02-06T19:08:33.717Z,12.53
2018-02-06T19:11:37.027Z,13.30
2018-02-06T19:14:40.381Z,13.73
2018-02-06T19:17:43.681Z,15.33
2018-02-06T19:20:46.956Z,13.10
2018-02-06T19:23:50.264Z,12.23
2018-02-06T19:26:53.542Z,11.73
2018-02-06T19:29:56.825Z,13.07
2018-02-06T19:33:00.114Z,13.73
2018-02-06T19:36:03.494Z,14.30
2018-02-06T19:39:07.592Z,14.43
2018-02-06T19:42:10.927Z,14.53
2018-02-06T19:45:14.984Z,13.37
2018-02-06T19:48:19.208Z,12.80
2018-02-06T19:51:22.549Z,13.57
2018-02-06T19:54:26.586Z,13.10
2018-02-06T19:57:29.928Z,13.10
2018-02-06T20:00:33.997Z,13.50
2018-02-06T20:03:37.284Z,12.10
2018-02-06T20:06:41.439Z,21.43
2018-02-06T20:09:47.064Z,28.23
2018-02-06T20:12:50.452Z,22.70
2018-02-06T20:15:54.484Z,16.70
2018-02-06T20:18:57.805Z,16.33
2018-02-06T20:22:01.373Z,16.45
2018-02-06T20:25:05.482Z,17.43
2018-02-06T20:28:09.634Z,13.03
2018-02-06T20:31:13.495Z,12.15
2018-02-06T20:34:17.680Z,12.63
2018-02-06T20:37:21.118Z,13.27
2018-02-06T20:40:24.435Z,11.82
2018-02-06T20:43:28.486Z,9.53
2018-02-06T20:46:32.066Z,11.32
2018-02-06T20:49:35.415Z,10.27
2018-02-06T20:52:38.738Z,11.60
2018-02-06T20:55:42.064Z,9.80
2018-02-06T20:58:45.354Z,10.47
2018-02-06T21:01:57.461Z,10.40
2018-02-06T21:05:01.562Z,11.50
2018-02-06T21:08:05.678Z,10.77
2018-02-06T21:11:09.745Z,11.80
2018-02-06T21:14:14.265Z,12.30
2018-02-06T21:17:17.566Z,10.77
2018-02-06T21:20:21.017Z,11.67
2018-02-06T21:23:24.303Z,11.98
2018-02-06T21:26:27.586Z,11.33
2018-02-06T21:29:31.031Z,12.60
2018-02-06T21:32:35.076Z,12.15
2018-02-06T21:35:38.439Z,10.07
2018-02-06T21:38:42.514Z,12.67
2018-02-06T21:41:45.936Z,13.83
2018-02-06T21:44:49.285Z,13.57
2018-02-06T21:47:52.614Z,13.87
2018-02-06T21:50:55.905Z,11.10
2018-02-06T21:53:59.202Z,16.70
2018-02-06T21:57:02.697Z,13.27
2018-02-06T22:00:06.013Z,11.95
2018-02-06T22:03:09.306Z,13.47
2018-02-06T22:06:12.578Z,13.37
2018-02-06T22:09:15.940Z,12.97
2018-02-06T22:12:19.982Z,10.70
2018-02-06T22:15:23.282Z,11.73
2018-02-06T22:18:26.640Z,12.00
2018-02-06T22:21:29.928Z,10.77
2018-02-06T22:24:33.201Z,9.80
2018-02-06T22:27:37.202Z,10.07
2018-02-06T22:30:40.505Z,12.10
2018-02-06T22:33:43.976Z,15.83
2018-02-06T22:36:48.013Z,15.20
2018-02-06T22:39:51.293Z,14.87
2018-02-06T22:42:54.681Z,15.33
2018-02-06T22:45:58.725Z,15.40
2018-02-06T22:49:02.014Z,15.13
2018-02-06T22:52:05.295Z,13.10
2018-02-06T22:55:08.584Z,11.30
2018-02-06T22:58:11.875Z,12.97
2018-02-06T23:01:16.986Z,13.35
2018-02-06T23:04:20.262Z,13.30
2018-02-06T23:07:23.555Z,12.17
2018-02-06T23:10:26.833Z,12.60
2018-02-06T23:13:31.057Z,11.20
2018-02-06T23:16:34.632Z,12.02
2018-02-06T23:19:37.929Z,11.43
2018-02-06T23:22:41.215Z,12.27
2018-02-06T23:25:44.570Z,11.73
2018-02-06T23:28:47.860Z,11.85
2018-02-06T23:31:51.141Z,13.35
2018-02-06T23:34:55.190Z,14.73
2018-02-06T23:37:58.489Z,11.17
2018-02-06T23:41:01.910Z,12.90
2018-02-06T23:44:05.206Z,11.07
2018-02-06T23:47:08.475Z,11.47
2018-02-06T23:50:11.759Z,12.70
2018-02-06T23:53:15.043Z,10.30
2018-02-06T23:56:18.481Z,10.87
2018-02-06T23:59:21.777Z,10.57
